sensor_id;sensor_type;location;lat;lon;timestamp;P1;durP1;ratioP1;P2;durP2;ratioP2
11398;SDS011;5755;48.116;11.608;2022-08-06T00:02:09;4.18;;;2.65;;
11398;SDS011;5755;48.116;11.608;2022-08-06T00:04:36;7.72;;;2.92;;
11398;SDS011;5755;48.116;11.608;2022-08-06T00:07:03;3.38;;;3.05;;
11398;SDS011;5755;48.116;11.608;2022-08-06T00:09:29;4.90;;;2.97;;
11398;SDS011;5755;48.116;11.608;2022-08-06T00:11:58;2.72;;;2.30;;
11398;SDS011;5755;48.116;11.608;2022-08-06T00:14:26;3.63;;;2.50;;
11398;SDS011;5755;48.116;11.608;2022-08-06T00:16:53;3.67;;;2.70;;
11398;SDS011;5755;48.116;11.608;2022-08-06T00:19:21;7.25;;;2.88;;
11398;SDS011;5755;48.116;11.608;2022-08-06T00:21:48;3.72;;;2.78;;
11398;SDS011;5755;48.116;11.608;2022-08-06T00:24:15;3.47;;;2.75;;
11398;SDS011;5755;48.116;11.608;2022-08-06T00:26:42;3.55;;;2.92;;
11398;SDS011;5755;48.116;11.608;2022-08-06T00:29:09;2.83;;;2.63;;
11398;SDS011;5755;48.116;11.608;2022-08-06T00:31:36;3.20;;;2.80;;
11398;SDS011;5755;48.116;11.608;2022-08-06T00:34:03;3.40;;;2.70;;
11398;SDS011;5755;48.116;11.608;2022-08-06T00:36:32;3.25;;;2.63;;
11398;SDS011;5755;48.116;11.608;2022-08-06T00:39:00;4.72;;;3.50;;
11398;SDS011;5755;48.116;11.608;2022-08-06T00:41:29;3.55;;;3.10;;
11398;SDS011;5755;48.116;11.608;2022-08-06T00:43:56;3.28;;;2.95;;
11398;SDS011;5755;48.116;11.608;2022-08-06T00:46:24;5.30;;;3.13;;
11398;SDS011;5755;48.116;11.608;2022-08-06T00:48:51;6.53;;;3.30;;
11398;SDS011;5755;48.116;11.608;2022-08-06T00:51:19;3.85;;;3.03;;
11398;SDS011;5755;48.116;11.608;2022-08-06T00:53:47;3.92;;;3.53;;
11398;SDS011;5755;48.116;11.608;2022-08-06T00:56:14;6.97;;;3.80;;
11398;SDS011;5755;48.116;11.608;2022-08-06T00:58:40;3.47;;;3.17;;
11398;SDS011;5755;48.116;11.608;2022-08-06T01:03:32;4.15;;;3.30;;
11398;SDS011;5755;48.116;11.608;2022-08-06T01:05:59;3.05;;;2.85;;
11398;SDS011;5755;48.116;11.608;2022-08-06T01:08:26;3.50;;;3.20;;
11398;SDS011;5755;48.116;11.608;2022-08-06T01:10:54;4.25;;;2.75;;
11398;SDS011;5755;48.116;11.608;2022-08-06T01:13:21;3.25;;;2.95;;
11398;SDS011;5755;48.116;11.608;2022-08-06T01:15:50;4.85;;;2.97;;
11398;SDS011;5755;48.116;11.608;2022-08-06T01:18:23;6.47;;;3.13;;
11398;SDS011;5755;48.116;11.608;2022-08-06T01:20:59;3.83;;;2.70;;
11398;SDS011;5755;48.116;11.608;2022-08-06T01:23:43;3.35;;;2.80;;
11398;SDS011;5755;48.116;11.608;2022-08-06T01:29:18;3.17;;;2.80;;
11398;SDS011;5755;48.116;11.608;2022-08-06T01:31:51;3.67;;;2.40;;
11398;SDS011;5755;48.116;11.608;2022-08-06T01:34:25;4.35;;;2.78;;
11398;SDS011;5755;48.116;11.608;2022-08-06T01:37:09;4.10;;;2.88;;
11398;SDS011;5755;48.116;11.608;2022-08-06T01:39:42;4.97;;;2.90;;
11398;SDS011;5755;48.116;11.608;2022-08-06T01:42:12;3.40;;;2.60;;
11398;SDS011;5755;48.116;11.608;2022-08-06T01:44:43;3.00;;;2.45;;
11398;SDS011;5755;48.116;11.608;2022-08-06T01:47:13;2.80;;;2.40;;
11398;SDS011;5755;48.116;11.608;2022-08-06T01:49:43;3.95;;;2.30;;
11398;SDS011;5755;48.116;11.608;2022-08-06T01:52:13;2.78;;;2.58;;
11398;SDS011;5755;48.116;11.608;2022-08-06T01:54:47;4.13;;;2.60;;
11398;SDS011;5755;48.116;11.608;2022-08-06T01:57:17;3.33;;;2.58;;
11398;SDS011;5755;48.116;11.608;2022-08-06T01:59:49;2.80;;;2.53;;
11398;SDS011;5755;48.116;11.608;2022-08-06T02:02:19;2.60;;;2.40;;
11398;SDS011;5755;48.116;11.608;2022-08-06T02:04:49;3.45;;;2.30;;
11398;SDS011;5755;48.116;11.608;2022-08-06T02:07:19;3.63;;;2.53;;
11398;SDS011;5755;48.116;11.608;2022-08-06T02:09:50;3.35;;;2.55;;
11398;SDS011;5755;48.116;11.608;2022-08-06T02:12:19;2.22;;;2.10;;
11398;SDS011;5755;48.116;11.608;2022-08-06T02:14:51;3.00;;;2.45;;
11398;SDS011;5755;48.116;11.608;2022-08-06T02:17:27;4.82;;;2.50;;
11398;SDS011;5755;48.116;11.608;2022-08-06T02:19:56;2.80;;;2.40;;
11398;SDS011;5755;48.116;11.608;2022-08-06T02:22:30;4.38;;;2.97;;
11398;SDS011;5755;48.116;11.608;2022-08-06T02:25:00;3.65;;;2.30;;
11398;SDS011;5755;48.116;11.608;2022-08-06T02:27:30;2.70;;;2.50;;
11398;SDS011;5755;48.116;11.608;2022-08-06T02:30:00;6.38;;;2.95;;
11398;SDS011;5755;48.116;11.608;2022-08-06T02:32:27;5.57;;;2.50;;
11398;SDS011;5755;48.116;11.608;2022-08-06T02:34:57;2.80;;;2.60;;
11398;SDS011;5755;48.116;11.608;2022-08-06T02:37:26;2.85;;;2.58;;
11398;SDS011;5755;48.116;11.608;2022-08-06T02:40:02;2.90;;;2.60;;
11398;SDS011;5755;48.116;11.608;2022-08-06T02:42:38;2.80;;;2.60;;
11398;SDS011;5755;48.116;11.608;2022-08-06T02:45:12;5.18;;;2.72;;
11398;SDS011;5755;48.116;11.608;2022-08-06T02:47:45;3.05;;;2.80;;
11398;SDS011;5755;48.116;11.608;2022-08-06T02:50:19;3.08;;;2.88;;
11398;SDS011;5755;48.116;11.608;2022-08-06T02:52:53;3.13;;;2.83;;
11398;SDS011;5755;48.116;11.608;2022-08-06T02:55:25;3.90;;;2.80;;
11398;SDS011;5755;48.116;11.608;2022-08-06T02:57:56;3.45;;;2.75;;
11398;SDS011;5755;48.116;11.608;2022-08-06T03:00:27;2.75;;;2.55;;
11398;SDS011;5755;48.116;11.608;2022-08-06T03:02:58;2.95;;;2.72;;
11398;SDS011;5755;48.116;11.608;2022-08-06T03:05:27;3.15;;;2.85;;
11398;SDS011;5755;48.116;11.608;2022-08-06T03:07:54;4.53;;;3.00;;
11398;SDS011;5755;48.116;11.608;2022-08-06T03:10:24;2.92;;;2.72;;
11398;SDS011;5755;48.116;11.608;2022-08-06T03:12:51;5.13;;;3.15;;
11398;SDS011;5755;48.116;11.608;2022-08-06T03:15:20;4.55;;;3.33;;
11398;SDS011;5755;48.116;11.608;2022-08-06T03:17:52;4.07;;;3.67;;
11398;SDS011;5755;48.116;11.608;2022-08-06T03:20:24;6.25;;;3.53;;
11398;SDS011;5755;48.116;11.608;2022-08-06T03:22:54;3.92;;;3.53;;
11398;SDS011;5755;48.116;11.608;2022-08-06T03:25:23;4.93;;;3.85;;
11398;SDS011;5755;48.116;11.608;2022-08-06T03:27:52;4.05;;;3.75;;
11398;SDS011;5755;48.116;11.608;2022-08-06T03:30:23;5.43;;;4.70;;
11398;SDS011;5755;48.116;11.608;2022-08-06T03:32:53;4.80;;;4.28;;
11398;SDS011;5755;48.116;11.608;2022-08-06T03:35:20;5.07;;;4.57;;
11398;SDS011;5755;48.116;11.608;2022-08-06T03:37:48;5.15;;;4.63;;
11398;SDS011;5755;48.116;11.608;2022-08-06T03:40:17;6.63;;;5.80;;
11398;SDS011;5755;48.116;11.608;2022-08-06T03:42:47;7.43;;;6.55;;
11398;SDS011;5755;48.116;11.608;2022-08-06T03:45:14;6.55;;;5.95;;
11398;SDS011;5755;48.116;11.608;2022-08-06T03:47:42;7.25;;;5.70;;
11398;SDS011;5755;48.116;11.608;2022-08-06T03:50:14;7.32;;;6.63;;
11398;SDS011;5755;48.116;11.608;2022-08-06T03:52:44;7.43;;;6.63;;
11398;SDS011;5755;48.116;11.608;2022-08-06T03:55:14;7.68;;;6.30;;
11398;SDS011;5755;48.116;11.608;2022-08-06T03:57:46;9.10;;;8.20;;
11398;SDS011;5755;48.116;11.608;2022-08-06T04:00:18;8.45;;;7.57;;
11398;SDS011;5755;48.116;11.608;2022-08-06T04:02:48;9.35;;;7.85;;
11398;SDS011;5755;48.116;11.608;2022-08-06T04:05:18;8.75;;;7.85;;
11398;SDS011;5755;48.116;11.608;2022-08-06T04:07:46;7.63;;;6.90;;
11398;SDS011;5755;48.116;11.608;2022-08-06T04:10:17;9.00;;;7.68;;
11398;SDS011;5755;48.116;11.608;2022-08-06T04:12:44;8.48;;;7.60;;
11398;SDS011;5755;48.116;11.608;2022-08-06T04:15:12;9.73;;;8.73;;
11398;SDS011;5755;48.116;11.608;2022-08-06T04:17:40;9.10;;;8.10;;
11398;SDS011;5755;48.116;11.608;2022-08-06T04:20:10;9.63;;;8.32;;
11398;SDS011;5755;48.116;11.608;2022-08-06T04:22:41;8.88;;;7.97;;
11398;SDS011;5755;48.116;11.608;2022-08-06T04:25:08;11.65;;;8.30;;
11398;SDS011;5755;48.116;11.608;2022-08-06T04:27:36;10.10;;;7.82;;
11398;SDS011;5755;48.116;11.608;2022-08-06T04:30:06;9.23;;;8.25;;
11398;SDS011;5755;48.116;11.608;2022-08-06T04:32:34;9.70;;;8.65;;
11398;SDS011;5755;48.116;11.608;2022-08-06T04:35:03;9.20;;;8.25;;
11398;SDS011;5755;48.116;11.608;2022-08-06T04:37:32;9.20;;;8.30;;
11398;SDS011;5755;48.116;11.608;2022-08-06T04:40:02;11.60;;;9.00;;
11398;SDS011;5755;48.116;11.608;2022-08-06T04:42:31;11.38;;;9.73;;
11398;SDS011;5755;48.116;11.608;2022-08-06T04:44:58;14.57;;;13.05;;
11398;SDS011;5755;48.116;11.608;2022-08-06T04:47:27;15.93;;;14.10;;
11398;SDS011;5755;48.116;11.608;2022-08-06T04:49:56;17.60;;;15.77;;
11398;SDS011;5755;48.116;11.608;2022-08-06T04:52:23;17.85;;;15.77;;
11398;SDS011;5755;48.116;11.608;2022-08-06T04:54:52;17.63;;;15.82;;
11398;SDS011;5755;48.116;11.608;2022-08-06T04:57:20;17.38;;;15.68;;
11398;SDS011;5755;48.116;11.608;2022-08-06T04:59:47;18.30;;;15.95;;
11398;SDS011;5755;48.116;11.608;2022-08-06T05:02:14;17.27;;;15.55;;
11398;SDS011;5755;48.116;11.608;2022-08-06T05:04:40;16.40;;;14.80;;
11398;SDS011;5755;48.116;11.608;2022-08-06T05:07:10;15.63;;;13.80;;
11398;SDS011;5755;48.116;11.608;2022-08-06T05:09:48;15.68;;;13.65;;
11398;SDS011;5755;48.116;11.608;2022-08-06T05:12:18;14.45;;;13.05;;
11398;SDS011;5755;48.116;11.608;2022-08-06T05:14:49;15.55;;;13.68;;
11398;SDS011;5755;48.116;11.608;2022-08-06T05:17:20;15.77;;;12.50;;
11398;SDS011;5755;48.116;11.608;2022-08-06T05:19:51;12.95;;;11.65;;
11398;SDS011;5755;48.116;11.608;2022-08-06T05:22:21;10.27;;;9.27;;
11398;SDS011;5755;48.116;11.608;2022-08-06T05:24:49;8.95;;;8.13;;
11398;SDS011;5755;48.116;11.608;2022-08-06T05:27:16;9.35;;;8.50;;
11398;SDS011;5755;48.116;11.608;2022-08-06T05:29:45;7.60;;;6.80;;
11398;SDS011;5755;48.116;11.608;2022-08-06T05:32:12;7.55;;;6.85;;
11398;SDS011;5755;48.116;11.608;2022-08-06T05:34:39;7.50;;;6.07;;
11398;SDS011;5755;48.116;11.608;2022-08-06T05:37:11;6.50;;;5.90;;
11398;SDS011;5755;48.116;11.608;2022-08-06T05:39:38;6.90;;;6.20;;
11398;SDS011;5755;48.116;11.608;2022-08-06T05:42:05;7.38;;;6.68;;
11398;SDS011;5755;48.116;11.608;2022-08-06T05:44:32;7.53;;;6.75;;
11398;SDS011;5755;48.116;11.608;2022-08-06T05:47:01;7.80;;;6.22;;
11398;SDS011;5755;48.116;11.608;2022-08-06T05:49:31;6.70;;;6.10;;
11398;SDS011;5755;48.116;11.608;2022-08-06T05:52:04;6.28;;;5.68;;
11398;SDS011;5755;48.116;11.608;2022-08-06T05:54:38;6.35;;;5.75;;
11398;SDS011;5755;48.116;11.608;2022-08-06T05:57:09;6.68;;;5.97;;
11398;SDS011;5755;48.116;11.608;2022-08-06T05:59:39;6.28;;;5.60;;
11398;SDS011;5755;48.116;11.608;2022-08-06T06:02:11;5.97;;;5.45;;
11398;SDS011;5755;48.116;11.608;2022-08-06T06:04:41;6.50;;;5.43;;
11398;SDS011;5755;48.116;11.608;2022-08-06T06:07:11;7.78;;;5.60;;
11398;SDS011;5755;48.116;11.608;2022-08-06T06:09:40;8.50;;;6.20;;
11398;SDS011;5755;48.116;11.608;2022-08-06T06:12:11;6.70;;;6.07;;
11398;SDS011;5755;48.116;11.608;2022-08-06T06:14:40;6.30;;;5.70;;
11398;SDS011;5755;48.116;11.608;2022-08-06T06:17:17;6.53;;;5.93;;
11398;SDS011;5755;48.116;11.608;2022-08-06T06:19:54;8.05;;;6.00;;
11398;SDS011;5755;48.116;11.608;2022-08-06T06:22:30;6.38;;;5.78;;
11398;SDS011;5755;48.116;11.608;2022-08-06T06:25:06;6.40;;;5.50;;
11398;SDS011;5755;48.116;11.608;2022-08-06T06:27:39;6.30;;;5.70;;
11398;SDS011;5755;48.116;11.608;2022-08-06T06:30:14;6.75;;;5.93;;
11398;SDS011;5755;48.116;11.608;2022-08-06T06:32:45;6.82;;;6.22;;
11398;SDS011;5755;48.116;11.608;2022-08-06T06:35:26;7.20;;;6.50;;
11398;SDS011;5755;48.116;11.608;2022-08-06T06:38:12;6.30;;;5.57;;
11398;SDS011;5755;48.116;11.608;2022-08-06T06:40:47;7.57;;;6.88;;
11398;SDS011;5755;48.116;11.608;2022-08-06T06:43:22;7.03;;;6.43;;
11398;SDS011;5755;48.116;11.608;2022-08-06T06:45:55;7.05;;;6.45;;
11398;SDS011;5755;48.116;11.608;2022-08-06T06:48:30;6.90;;;6.30;;
11398;SDS011;5755;48.116;11.608;2022-08-06T06:51:01;7.22;;;6.53;;
11398;SDS011;5755;48.116;11.608;2022-08-06T06:53:35;7.05;;;6.35;;
11398;SDS011;5755;48.116;11.608;2022-08-06T06:56:06;6.28;;;5.68;;
11398;SDS011;5755;48.116;11.608;2022-08-06T06:58:35;6.60;;;5.85;;
11398;SDS011;5755;48.116;11.608;2022-08-06T07:01:06;6.70;;;6.10;;
11398;SDS011;5755;48.116;11.608;2022-08-06T07:03:38;6.95;;;6.20;;
11398;SDS011;5755;48.116;11.608;2022-08-06T07:06:06;8.00;;;6.40;;
11398;SDS011;5755;48.116;11.608;2022-08-06T07:11:45;7.45;;;6.43;;
11398;SDS011;5755;48.116;11.608;2022-08-06T07:14:14;6.93;;;6.22;;
11398;SDS011;5755;48.116;11.608;2022-08-06T07:21:35;7.03;;;6.22;;
11398;SDS011;5755;48.116;11.608;2022-08-06T07:24:04;6.80;;;5.93;;
11398;SDS011;5755;48.116;11.608;2022-08-06T07:26:32;7.82;;;5.35;;
11398;SDS011;5755;48.116;11.608;2022-08-06T07:29:00;6.22;;;5.63;;
11398;SDS011;5755;48.116;11.608;2022-08-06T07:31:34;6.63;;;5.93;;
11398;SDS011;5755;48.116;11.608;2022-08-06T07:34:02;6.63;;;6.05;;
11398;SDS011;5755;48.116;11.608;2022-08-06T07:36:36;6.63;;;5.85;;
11398;SDS011;5755;48.116;11.608;2022-08-06T07:39:07;6.25;;;5.68;;
11398;SDS011;5755;48.116;11.608;2022-08-06T07:41:35;6.82;;;6.20;;
11398;SDS011;5755;48.116;11.608;2022-08-06T07:44:05;6.75;;;6.15;;
11398;SDS011;5755;48.116;11.608;2022-08-06T07:46:34;6.85;;;6.18;;
11398;SDS011;5755;48.116;11.608;2022-08-06T07:49:06;7.32;;;6.57;;
11398;SDS011;5755;48.116;11.608;2022-08-06T07:51:35;8.18;;;7.45;;
11398;SDS011;5755;48.116;11.608;2022-08-06T07:54:06;8.45;;;7.65;;
11398;SDS011;5755;48.116;11.608;2022-08-06T07:56:34;8.98;;;8.13;;
11398;SDS011;5755;48.116;11.608;2022-08-06T07:59:03;8.20;;;7.40;;
11398;SDS011;5755;48.116;11.608;2022-08-06T08:01:31;8.02;;;7.15;;
11398;SDS011;5755;48.116;11.608;2022-08-06T08:03:58;12.95;;;11.60;;
11398;SDS011;5755;48.116;11.608;2022-08-06T08:06:44;8.68;;;7.78;;
11398;SDS011;5755;48.116;11.608;2022-08-06T08:09:12;11.85;;;10.75;;
11398;SDS011;5755;48.116;11.608;2022-08-06T08:11:40;8.70;;;7.57;;
11398;SDS011;5755;48.116;11.608;2022-08-06T08:14:09;9.18;;;8.40;;
11398;SDS011;5755;48.116;11.608;2022-08-06T08:16:37;8.77;;;7.88;;
11398;SDS011;5755;48.116;11.608;2022-08-06T08:21:49;14.82;;;13.40;;
11398;SDS011;5755;48.116;11.608;2022-08-06T08:24:16;10.60;;;9.60;;
11398;SDS011;5755;48.116;11.608;2022-08-06T08:26:44;10.23;;;9.23;;
11398;SDS011;5755;48.116;11.608;2022-08-06T08:29:11;10.93;;;9.80;;
11398;SDS011;5755;48.116;11.608;2022-08-06T08:31:38;10.90;;;9.82;;
11398;SDS011;5755;48.116;11.608;2022-08-06T08:34:05;10.82;;;9.82;;
11398;SDS011;5755;48.116;11.608;2022-08-06T08:36:32;11.40;;;10.30;;
11398;SDS011;5755;48.116;11.608;2022-08-06T08:39:00;12.27;;;11.23;;
11398;SDS011;5755;48.116;11.608;2022-08-06T08:41:28;10.55;;;9.52;;
11398;SDS011;5755;48.116;11.608;2022-08-06T08:44:02;12.23;;;11.07;;
11398;SDS011;5755;48.116;11.608;2022-08-06T08:46:32;11.98;;;10.77;;
11398;SDS011;5755;48.116;11.608;2022-08-06T08:49:01;11.45;;;10.32;;
11398;SDS011;5755;48.116;11.608;2022-08-06T08:51:30;12.15;;;11.02;;
11398;SDS011;5755;48.116;11.608;2022-08-06T08:53:59;12.50;;;11.18;;
11398;SDS011;5755;48.116;11.608;2022-08-06T08:56:31;12.25;;;11.02;;
11398;SDS011;5755;48.116;11.608;2022-08-06T08:58:58;11.25;;;10.20;;
11398;SDS011;5755;48.116;11.608;2022-08-06T09:01:27;11.30;;;10.10;;
11398;SDS011;5755;48.116;11.608;2022-08-06T09:03:54;11.85;;;10.68;;
11398;SDS011;5755;48.116;11.608;2022-08-06T09:06:21;11.80;;;10.70;;
11398;SDS011;5755;48.116;11.608;2022-08-06T09:08:49;12.18;;;10.35;;
11398;SDS011;5755;48.116;11.608;2022-08-06T09:11:18;12.23;;;11.13;;
11398;SDS011;5755;48.116;11.608;2022-08-06T09:13:45;12.20;;;10.45;;
11398;SDS011;5755;48.116;11.608;2022-08-06T09:16:12;11.77;;;10.75;;
11398;SDS011;5755;48.116;11.608;2022-08-06T09:18:40;11.07;;;9.95;;
11398;SDS011;5755;48.116;11.608;2022-08-06T09:21:07;17.23;;;15.52;;
11398;SDS011;5755;48.116;11.608;2022-08-06T09:23:36;13.10;;;11.07;;
11398;SDS011;5755;48.116;11.608;2022-08-06T09:26:04;14.50;;;13.07;;
11398;SDS011;5755;48.116;11.608;2022-08-06T09:28:34;56.00;;;49.58;;
11398;SDS011;5755;48.116;11.608;2022-08-06T09:31:03;16.48;;;14.88;;
11398;SDS011;5755;48.116;11.608;2022-08-06T09:33:34;18.52;;;16.70;;
11398;SDS011;5755;48.116;11.608;2022-08-06T09:36:05;13.70;;;12.40;;
11398;SDS011;5755;48.116;11.608;2022-08-06T09:38:43;13.48;;;12.23;;
11398;SDS011;5755;48.116;11.608;2022-08-06T09:41:12;14.60;;;12.48;;
11398;SDS011;5755;48.116;11.608;2022-08-06T09:43:41;12.90;;;11.63;;
11398;SDS011;5755;48.116;11.608;2022-08-06T09:46:09;13.55;;;12.35;;
11398;SDS011;5755;48.116;11.608;2022-08-06T09:48:35;13.45;;;12.05;;
11398;SDS011;5755;48.116;11.608;2022-08-06T09:51:02;13.25;;;12.02;;
11398;SDS011;5755;48.116;11.608;2022-08-06T09:53:29;13.80;;;12.20;;
11398;SDS011;5755;48.116;11.608;2022-08-06T09:55:56;13.43;;;12.18;;
11398;SDS011;5755;48.116;11.608;2022-08-06T09:58:30;12.27;;;11.18;;
11398;SDS011;5755;48.116;11.608;2022-08-06T10:01:14;11.80;;;10.70;;
11398;SDS011;5755;48.116;11.608;2022-08-06T10:03:43;12.48;;;11.27;;
11398;SDS011;5755;48.116;11.608;2022-08-06T10:06:10;13.25;;;11.95;;
11398;SDS011;5755;48.116;11.608;2022-08-06T10:08:39;12.38;;;11.18;;
11398;SDS011;5755;48.116;11.608;2022-08-06T10:11:08;13.50;;;12.18;;
11398;SDS011;5755;48.116;11.608;2022-08-06T10:13:46;12.90;;;11.68;;
11398;SDS011;5755;48.116;11.608;2022-08-06T10:16:16;17.75;;;15.80;;
11398;SDS011;5755;48.116;11.608;2022-08-06T10:18:47;13.82;;;12.48;;
11398;SDS011;5755;48.116;11.608;2022-08-06T10:21:17;13.75;;;11.57;;
11398;SDS011;5755;48.116;11.608;2022-08-06T10:23:53;11.60;;;10.38;;
11398;SDS011;5755;48.116;11.608;2022-08-06T10:26:29;12.65;;;11.35;;
11398;SDS011;5755;48.116;11.608;2022-08-06T10:29:00;12.70;;;10.60;;
11398;SDS011;5755;48.116;11.608;2022-08-06T10:31:31;12.02;;;10.93;;
11398;SDS011;5755;48.116;11.608;2022-08-06T10:33:59;11.23;;;10.13;;
11398;SDS011;5755;48.116;11.608;2022-08-06T10:36:31;10.20;;;9.20;;
11398;SDS011;5755;48.116;11.608;2022-08-06T10:39:04;10.63;;;9.60;;
11398;SDS011;5755;48.116;11.608;2022-08-06T10:41:32;10.52;;;8.82;;
11398;SDS011;5755;48.116;11.608;2022-08-06T10:44:00;9.23;;;8.32;;
11398;SDS011;5755;48.116;11.608;2022-08-06T10:46:28;9.35;;;8.45;;
11398;SDS011;5755;48.116;11.608;2022-08-06T10:48:57;9.20;;;8.38;;
11398;SDS011;5755;48.116;11.608;2022-08-06T10:51:25;9.00;;;8.13;;
11398;SDS011;5755;48.116;11.608;2022-08-06T10:53:53;9.10;;;8.25;;
11398;SDS011;5755;48.116;11.608;2022-08-06T10:56:28;8.60;;;7.80;;
11398;SDS011;5755;48.116;11.608;2022-08-06T10:58:55;7.97;;;7.28;;
11398;SDS011;5755;48.116;11.608;2022-08-06T11:01:24;7.95;;;7.25;;
11398;SDS011;5755;48.116;11.608;2022-08-06T11:04:15;9.38;;;8.48;;
11398;SDS011;5755;48.116;11.608;2022-08-06T11:06:59;8.68;;;7.88;;
11398;SDS011;5755;48.116;11.608;2022-08-06T11:09:41;8.20;;;7.40;;
11398;SDS011;5755;48.116;11.608;2022-08-06T11:12:39;9.15;;;8.23;;
11398;SDS011;5755;48.116;11.608;2022-08-06T11:15:16;8.10;;;7.40;;
11398;SDS011;5755;48.116;11.608;2022-08-06T11:17:44;9.45;;;8.02;;
11398;SDS011;5755;48.116;11.608;2022-08-06T11:23:05;12.95;;;11.60;;
11398;SDS011;5755;48.116;11.608;2022-08-06T11:25:52;9.82;;;8.35;;
11398;SDS011;5755;48.116;11.608;2022-08-06T11:31:35;10.60;;;9.20;;
11398;SDS011;5755;48.116;11.608;2022-08-06T11:34:11;8.88;;;8.05;;
11398;SDS011;5755;48.116;11.608;2022-08-06T11:39:32;7.22;;;6.63;;
11398;SDS011;5755;48.116;11.608;2022-08-06T11:42:40;7.55;;;6.95;;
11398;SDS011;5755;48.116;11.608;2022-08-06T11:45:10;8.35;;;7.55;;
11398;SDS011;5755;48.116;11.608;2022-08-06T11:47:49;7.80;;;7.10;;
11398;SDS011;5755;48.116;11.608;2022-08-06T11:50:29;7.60;;;6.90;;
11398;SDS011;5755;48.116;11.608;2022-08-06T11:52:59;7.63;;;7.00;;
11398;SDS011;5755;48.116;11.608;2022-08-06T11:55:26;8.73;;;7.82;;
11398;SDS011;5755;48.116;11.608;2022-08-06T12:00:54;8.55;;;7.75;;
11398;SDS011;5755;48.116;11.608;2022-08-06T12:03:43;11.27;;;8.90;;
11398;SDS011;5755;48.116;11.608;2022-08-06T12:06:20;9.77;;;8.13;;
11398;SDS011;5755;48.116;11.608;2022-08-06T12:09:06;10.10;;;9.10;;
11398;SDS011;5755;48.116;11.608;2022-08-06T12:11:34;9.85;;;9.02;;
11398;SDS011;5755;48.116;11.608;2022-08-06T12:17:16;11.75;;;10.70;;
11398;SDS011;5755;48.116;11.608;2022-08-06T12:19:58;12.70;;;11.60;;
11398;SDS011;5755;48.116;11.608;2022-08-06T12:22:29;12.35;;;11.23;;
11398;SDS011;5755;48.116;11.608;2022-08-06T12:25:00;13.13;;;11.93;;
11398;SDS011;5755;48.116;11.608;2022-08-06T12:27:40;15.07;;;11.18;;
11398;SDS011;5755;48.116;11.608;2022-08-06T12:30:16;14.50;;;12.48;;
11398;SDS011;5755;48.116;11.608;2022-08-06T12:32:44;13.93;;;12.10;;
11398;SDS011;5755;48.116;11.608;2022-08-06T12:35:16;13.93;;;12.23;;
11398;SDS011;5755;48.116;11.608;2022-08-06T12:37:44;13.00;;;11.70;;
11398;SDS011;5755;48.116;11.608;2022-08-06T12:40:14;13.07;;;11.88;;
11398;SDS011;5755;48.116;11.608;2022-08-06T12:43:07;12.88;;;11.75;;
11398;SDS011;5755;48.116;11.608;2022-08-06T12:45:40;11.73;;;10.65;;
11398;SDS011;5755;48.116;11.608;2022-08-06T12:48:08;11.45;;;10.25;;
11398;SDS011;5755;48.116;11.608;2022-08-06T12:50:37;12.38;;;11.18;;
11398;SDS011;5755;48.116;11.608;2022-08-06T12:53:06;10.27;;;9.35;;
11398;SDS011;5755;48.116;11.608;2022-08-06T12:55:43;11.27;;;10.27;;
11398;SDS011;5755;48.116;11.608;2022-08-06T12:58:12;11.10;;;10.00;;
11398;SDS011;5755;48.116;11.608;2022-08-06T13:00:42;10.68;;;9.77;;
11398;SDS011;5755;48.116;11.608;2022-08-06T13:03:14;12.38;;;11.18;;
11398;SDS011;5755;48.116;11.608;2022-08-06T13:05:42;12.48;;;11.27;;
11398;SDS011;5755;48.116;11.608;2022-08-06T13:08:10;11.45;;;10.27;;
11398;SDS011;5755;48.116;11.608;2022-08-06T13:10:39;11.15;;;9.63;;
11398;SDS011;5755;48.116;11.608;2022-08-06T13:13:14;11.95;;;9.15;;
11398;SDS011;5755;48.116;11.608;2022-08-06T13:15:42;12.38;;;10.23;;
11398;SDS011;5755;48.116;11.608;2022-08-06T13:18:16;10.52;;;9.52;;
11398;SDS011;5755;48.116;11.608;2022-08-06T13:20:44;11.15;;;10.00;;
11398;SDS011;5755;48.116;11.608;2022-08-06T13:26:11;10.88;;;9.77;;
11398;SDS011;5755;48.116;11.608;2022-08-06T13:28:45;10.68;;;9.68;;
11398;SDS011;5755;48.116;11.608;2022-08-06T13:34:45;10.48;;;9.45;;
11398;SDS011;5755;48.116;11.608;2022-08-06T13:37:13;12.95;;;11.70;;
11398;SDS011;5755;48.116;11.608;2022-08-06T13:39:48;12.32;;;11.23;;
11398;SDS011;5755;48.116;11.608;2022-08-06T13:42:16;12.30;;;11.20;;
11398;SDS011;5755;48.116;11.608;2022-08-06T13:44:44;9.45;;;8.65;;
11398;SDS011;5755;48.116;11.608;2022-08-06T13:47:12;9.77;;;8.93;;
11398;SDS011;5755;48.116;11.608;2022-08-06T13:49:51;9.80;;;8.90;;
11398;SDS011;5755;48.116;11.608;2022-08-06T13:52:22;9.40;;;8.57;;
11398;SDS011;5755;48.116;11.608;2022-08-06T13:54:58;8.77;;;7.97;;
11398;SDS011;5755;48.116;11.608;2022-08-06T13:57:25;9.77;;;8.93;;
11398;SDS011;5755;48.116;11.608;2022-08-06T13:59:58;10.23;;;9.00;;
11398;SDS011;5755;48.116;11.608;2022-08-06T14:02:25;9.25;;;8.18;;
11398;SDS011;5755;48.116;11.608;2022-08-06T14:04:52;9.48;;;8.57;;
11398;SDS011;5755;48.116;11.608;2022-08-06T14:07:34;8.32;;;7.30;;
11398;SDS011;5755;48.116;11.608;2022-08-06T14:10:01;8.38;;;7.57;;
11398;SDS011;5755;48.116;11.608;2022-08-06T14:12:28;8.13;;;7.32;;
11398;SDS011;5755;48.116;11.608;2022-08-06T14:15:12;8.30;;;7.40;;
11398;SDS011;5755;48.116;11.608;2022-08-06T14:17:46;7.60;;;7.00;;
11398;SDS011;5755;48.116;11.608;2022-08-06T14:20:16;7.63;;;6.93;;
11398;SDS011;5755;48.116;11.608;2022-08-06T14:22:43;7.90;;;7.28;;
11398;SDS011;5755;48.116;11.608;2022-08-06T14:25:10;11.63;;;10.43;;
11398;SDS011;5755;48.116;11.608;2022-08-06T14:27:37;7.43;;;6.70;;
11398;SDS011;5755;48.116;11.608;2022-08-06T14:30:04;7.95;;;6.90;;
11398;SDS011;5755;48.116;11.608;2022-08-06T14:32:34;9.63;;;8.68;;
11398;SDS011;5755;48.116;11.608;2022-08-06T14:35:00;36.03;;;32.45;;
11398;SDS011;5755;48.116;11.608;2022-08-06T14:37:27;12.70;;;10.43;;
11398;SDS011;5755;48.116;11.608;2022-08-06T14:39:54;7.40;;;6.70;;
11398;SDS011;5755;48.116;11.608;2022-08-06T14:42:28;9.57;;;7.05;;
11398;SDS011;5755;48.116;11.608;2022-08-06T14:45:12;21.75;;;19.67;;
11398;SDS011;5755;48.116;11.608;2022-08-06T14:47:42;9.73;;;8.55;;
11398;SDS011;5755;48.116;11.608;2022-08-06T14:50:10;8.70;;;7.90;;
11398;SDS011;5755;48.116;11.608;2022-08-06T14:52:40;8.25;;;7.30;;
11398;SDS011;5755;48.116;11.608;2022-08-06T14:55:22;11.60;;;10.57;;
11398;SDS011;5755;48.116;11.608;2022-08-06T14:57:52;8.48;;;7.30;;
11398;SDS011;5755;48.116;11.608;2022-08-06T15:00:19;9.77;;;8.85;;
11398;SDS011;5755;48.116;11.608;2022-08-06T15:02:48;11.38;;;10.27;;
11398;SDS011;5755;48.116;11.608;2022-08-06T15:05:22;7.57;;;6.85;;
11398;SDS011;5755;48.116;11.608;2022-08-06T15:07:58;9.07;;;7.72;;
11398;SDS011;5755;48.116;11.608;2022-08-06T15:10:25;7.75;;;6.47;;
11398;SDS011;5755;48.116;11.608;2022-08-06T15:12:52;7.20;;;6.55;;
11398;SDS011;5755;48.116;11.608;2022-08-06T15:15:22;7.20;;;6.50;;
11398;SDS011;5755;48.116;11.608;2022-08-06T15:17:50;7.00;;;6.28;;
11398;SDS011;5755;48.116;11.608;2022-08-06T15:20:17;7.78;;;6.80;;
11398;SDS011;5755;48.116;11.608;2022-08-06T15:22:45;7.47;;;6.68;;
11398;SDS011;5755;48.116;11.608;2022-08-06T15:25:11;6.95;;;6.25;;
11398;SDS011;5755;48.116;11.608;2022-08-06T15:27:58;8.05;;;6.03;;
11398;SDS011;5755;48.116;11.608;2022-08-06T15:30:34;7.10;;;6.40;;
11398;SDS011;5755;48.116;11.608;2022-08-06T15:33:03;7.00;;;6.40;;
11398;SDS011;5755;48.116;11.608;2022-08-06T15:35:29;6.38;;;5.85;;
11398;SDS011;5755;48.116;11.608;2022-08-06T15:37:58;6.40;;;5.88;;
11398;SDS011;5755;48.116;11.608;2022-08-06T15:40:25;6.65;;;5.65;;